createdAt,value
2022-08-27T00:04:03.058Z,97838.19
2022-08-27T00:09:05.823Z,97843.25
2022-08-27T00:14:08.102Z,97833.84
2022-08-27T00:19:10.949Z,97829.53
2022-08-27T00:24:13.078Z,97844.38
2022-08-27T00:29:14.947Z,97848.09
2022-08-27T00:34:16.830Z,97848.50
2022-08-27T00:39:19.252Z,97846.72
2022-08-27T00:44:21.429Z,97854.69
2022-08-27T00:49:32.440Z,97838.06
2022-08-27T00:54:34.825Z,97847.59
2022-08-27T00:59:36.898Z,97849.25
2022-08-27T01:04:41.531Z,97843.88
2022-08-27T01:09:45.844Z,97847.75
2022-08-27T01:14:48.121Z,97847.22
2022-08-27T01:19:52.428Z,97853.63
2022-08-27T01:24:58.438Z,97846.50
2022-08-27T01:30:01.091Z,97844.94
2022-08-27T01:35:06.629Z,97843.75
2022-08-27T01:40:09.501Z,97848.59
2022-08-27T01:45:30.297Z,97836.53
2022-08-27T01:50:36.083Z,97836.84
2022-08-27T01:55:39.064Z,97828.03
2022-08-27T02:00:46.422Z,97826.81
2022-08-27T02:05:48.713Z,97828.91
2022-08-27T02:10:51.045Z,97834.91
2022-08-27T02:15:53.557Z,97846.19
2022-08-27T02:20:55.461Z,97836.50
2022-08-27T02:25:57.364Z,97834.31
2022-08-27T02:30:59.289Z,97821.56
2022-08-27T02:36:01.367Z,97815.38
2022-08-27T02:41:04.376Z,97812.47
2022-08-27T02:46:06.476Z,97808.28
2022-08-27T02:51:08.982Z,97808.94
2022-08-27T02:56:10.988Z,97809.59
2022-08-27T03:01:13.873Z,97810.16
2022-08-27T03:06:15.961Z,97813.81
2022-08-27T03:11:17.892Z,97812.63
2022-08-27T03:16:19.896Z,97820.03
2022-08-27T03:21:24.879Z,97814.53
2022-08-27T03:26:27.223Z,97824.06
2022-08-27T03:31:29.405Z,97824.97
2022-08-27T03:36:31.765Z,97822.53
2022-08-27T03:41:40.025Z,97830.69
2022-08-27T03:46:55.577Z,97841.63
2022-08-27T03:51:57.566Z,97829.78
2022-08-27T03:56:59.426Z,97842.69
2022-08-27T04:02:01.916Z,97834.50
2022-08-27T04:07:04.217Z,97833.38
2022-08-27T04:12:06.259Z,97841.53
2022-08-27T04:17:08.178Z,97835.56
2022-08-27T04:22:10.052Z,97828.16
2022-08-27T04:27:14.511Z,97829.88
2022-08-27T04:32:16.399Z,97836.84
2022-08-27T04:37:21.477Z,97843.13
2022-08-27T04:42:25.355Z,97840.91
2022-08-27T04:47:27.505Z,97838.03
2022-08-27T04:52:29.672Z,97842.22
2022-08-27T04:57:31.534Z,97828.75
2022-08-27T05:02:33.401Z,97831.16
2022-08-27T05:07:35.267Z,97831.63
2022-08-27T05:12:37.190Z,97828.34
2022-08-27T05:17:39.064Z,97831.25
2022-08-27T05:22:40.928Z,97828.69
2022-08-27T05:27:42.965Z,97820.09
2022-08-27T05:32:44.981Z,97819.84
2022-08-27T05:37:46.974Z,97820.09
2022-08-27T05:42:50.181Z,97817.13
2022-08-27T05:47:53.203Z,97821.00
2022-08-27T05:52:55.145Z,97820.72
2022-08-27T05:57:57.062Z,97826.81
2022-08-27T06:02:59.032Z,97831.69
2022-08-27T06:08:00.985Z,97836.97
2022-08-27T06:13:04.048Z,97840.84
2022-08-27T06:18:06.424Z,97842.72
2022-08-27T06:23:08.460Z,97842.06
2022-08-27T06:28:10.719Z,97847.81
2022-08-27T06:33:12.923Z,97851.13
2022-08-27T06:38:14.961Z,97843.69
2022-08-27T06:43:16.970Z,97850.22
2022-08-27T06:48:19.340Z,97853.00
2022-08-27T06:53:24.513Z,97850.00
2022-08-27T06:58:26.769Z,97866.34
2022-08-27T07:03:28.740Z,97869.31
2022-08-27T07:08:30.651Z,97865.66
2022-08-27T07:13:32.547Z,97866.34
2022-08-27T07:18:34.746Z,97872.53
2022-08-27T07:23:38.714Z,97868.53
2022-08-27T07:28:42.614Z,97862.38
2022-08-27T07:33:52.181Z,97871.19
2022-08-27T07:39:01.091Z,97875.63
2022-08-27T07:44:26.050Z,97882.72
2022-08-27T07:49:31.611Z,97882.94
2022-08-27T07:54:33.501Z,97895.16
2022-08-27T07:59:35.349Z,97903.22
2022-08-27T08:04:37.255Z,97914.09
2022-08-27T08:09:39.161Z,97906.44
2022-08-27T08:14:41.204Z,97905.69
2022-08-27T08:19:53.483Z,97904.31
2022-08-27T08:25:05.692Z,97903.69
2022-08-27T08:30:09.069Z,97906.91
2022-08-27T08:35:11.387Z,97908.56
2022-08-27T08:40:43.257Z,97910.41
2022-08-27T08:45:46.129Z,97906.22
2022-08-27T08:51:26.381Z,97923.31
2022-08-27T08:57:06.890Z,97920.34
2022-08-27T09:02:13.593Z,97918.94
2022-08-27T09:07:35.018Z,97921.81
2022-08-27T09:12:38.687Z,97924.25
2022-08-27T09:17:42.218Z,97926.22
2022-08-27T09:23:02.191Z,97923.16
2022-08-27T09:28:47.608Z,97925.69
2022-08-27T09:33:56.831Z,97939.00
2022-08-27T09:39:04.203Z,97938.34
2022-08-27T09:44:12.263Z,97935.47
2022-08-27T09:49:16.416Z,97937.44
2022-08-27T09:54:48.379Z,97933.13
2022-08-27T09:59:54.409Z,97932.28
2022-08-27T10:05:02.153Z,97931.59
2022-08-27T10:10:21.668Z,97929.50
2022-08-27T10:15:27.340Z,97941.31
2022-08-27T10:21:05.957Z,97930.72
2022-08-27T10:26:17.419Z,97932.69
2022-08-27T10:31:32.913Z,97929.06
2022-08-27T10:36:47.209Z,97933.81
2022-08-27T10:42:06.117Z,97935.59
2022-08-27T10:47:23.688Z,97936.00
2022-08-27T10:52:51.532Z,97944.84
2022-08-27T10:58:10.793Z,97945.31
2022-08-27T11:03:22.464Z,97945.06
2022-08-27T11:08:35.178Z,97943.75
2022-08-27T11:13:41.495Z,97940.19
2022-08-27T11:19:10.508Z,97943.09
2022-08-27T11:24:35.864Z,97943.50
2022-08-27T11:29:52.217Z,97934.88
2022-08-27T11:35:09.668Z,97947.72
2022-08-27T11:40:27.460Z,97949.59
2022-08-27T11:45:38.775Z,97952.81
2022-08-27T11:50:40.958Z,97952.69
2022-08-27T11:55:43.170Z,97960.09
2022-08-27T12:00:47.219Z,97943.41
2022-08-27T12:05:55.171Z,97942.94
2022-08-27T12:11:25.180Z,97936.41
2022-08-27T12:16:57.310Z,97929.91
2022-08-27T12:22:26.251Z,97924.97
2022-08-27T12:27:38.418Z,97928.16
2022-08-27T12:32:45.052Z,97927.72
2022-08-27T12:37:57.831Z,97931.00
2022-08-27T12:43:11.452Z,97934.34
2022-08-27T12:48:14.797Z,97928.16
2022-08-27T12:53:32.456Z,97921.19
2022-08-27T12:58:48.677Z,97935.19
2022-08-27T13:03:54.427Z,97923.97
2022-08-27T13:08:59.624Z,97928.81
2022-08-27T13:14:11.541Z,97925.22
2022-08-27T13:19:22.975Z,97929.53
2022-08-27T13:24:34.496Z,97923.94
2022-08-27T13:29:39.243Z,97925.13
2022-08-27T13:34:41.970Z,97931.00
2022-08-27T13:39:44.181Z,97931.91
2022-08-27T13:44:48.417Z,97927.03
2022-08-27T13:49:52.017Z,97924.91
2022-08-27T13:55:08.247Z,97927.81
2022-08-27T14:00:23.590Z,97932.31
2022-08-27T14:05:25.700Z,97934.88
2022-08-27T14:10:41.066Z,97927.91
2022-08-27T14:15:47.176Z,97924.97
2022-08-27T14:20:49.437Z,97940.13
2022-08-27T14:25:53.438Z,97929.94
2022-08-27T14:30:55.393Z,97943.78
2022-08-27T14:35:57.617Z,97939.25
2022-08-27T14:41:00.209Z,97939.25
2022-08-27T14:46:03.182Z,97931.63
2022-08-27T14:51:12.543Z,97940.44
2022-08-27T14:56:14.557Z,97945.22
2022-08-27T15:01:18.585Z,97936.78
2022-08-27T15:06:26.481Z,97943.09
2022-08-27T15:11:34.159Z,97936.13
2022-08-27T15:16:40.908Z,97941.00
2022-08-27T15:21:47.390Z,97937.78
2022-08-27T15:26:50.587Z,97937.88
2022-08-27T15:31:53.131Z,97941.28
2022-08-27T15:36:56.581Z,97938.63
2022-08-27T15:42:06.955Z,97941.19
2022-08-27T15:47:09.143Z,97944.50
2022-08-27T15:52:16.068Z,97932.69
2022-08-27T15:57:20.516Z,97932.78
2022-08-27T16:02:24.363Z,97938.44
2022-08-27T16:07:26.785Z,97945.06
2022-08-27T16:12:29.045Z,97941.63
2022-08-27T16:17:31.034Z,97941.84
2022-08-27T16:22:34.914Z,97927.16
2022-08-27T16:27:37.640Z,97925.25
2022-08-27T16:32:40.531Z,97931.13
2022-08-27T16:37:44.278Z,97911.44
2022-08-27T16:42:50.461Z,97919.28
2022-08-27T16:48:11.288Z,97924.94
2022-08-27T16:53:15.732Z,97918.50
2022-08-27T16:58:29.731Z,97922.28
2022-08-27T17:03:37.755Z,97928.78
2022-08-27T17:08:55.108Z,97936.75
2022-08-27T17:14:00.301Z,97942.63
2022-08-27T17:19:05.730Z,97945.72
2022-08-27T17:24:12.417Z,97958.88
2022-08-27T17:29:14.738Z,97966.06
2022-08-27T17:34:21.984Z,97956.81
2022-08-27T17:39:23.975Z,97976.34
2022-08-27T17:44:36.087Z,97971.41
2022-08-27T17:49:38.083Z,97987.28
2022-08-27T17:54:46.194Z,97980.09
2022-08-27T17:59:49.336Z,97979.09
2022-08-27T18:04:52.267Z,97988.41
2022-08-27T18:09:55.723Z,97997.03
2022-08-27T18:15:15.327Z,98003.22
2022-08-27T18:20:18.495Z,98005.22
2022-08-27T18:25:24.806Z,98001.97
2022-08-27T18:30:27.551Z,98009.09
2022-08-27T18:35:32.194Z,98013.28
2022-08-27T18:40:42.297Z,98020.44
2022-08-27T18:45:44.716Z,98030.06
2022-08-27T18:50:50.082Z,98017.31
2022-08-27T18:55:53.259Z,98030.44
2022-08-27T19:00:58.670Z,98032.19
2022-08-27T19:06:01.716Z,98032.69
2022-08-27T19:11:11.811Z,98029.06
2022-08-27T19:16:22.194Z,98038.72
2022-08-27T19:21:24.701Z,98043.72
2022-08-27T19:26:26.700Z,98057.03
2022-08-27T19:31:29.429Z,98053.84
2022-08-27T19:36:34.698Z,98050.47
2022-08-27T19:41:37.087Z,98058.91
2022-08-27T19:46:39.676Z,98055.97
2022-08-27T19:51:41.782Z,98056.84
2022-08-27T19:56:44.957Z,98060.81
2022-08-27T20:01:47.100Z,98050.66
2022-08-27T20:06:49.018Z,98054.81
2022-08-27T20:11:50.999Z,98050.94
2022-08-27T20:16:53.131Z,98053.25
2022-08-27T20:21:55.224Z,98049.97
2022-08-27T20:26:58.148Z,98045.38
2022-08-27T20:32:01.213Z,98043.75
2022-08-27T20:37:04.338Z,98049.63
2022-08-27T20:42:07.641Z,98045.22
2022-08-27T20:47:11.109Z,98041.34
2022-08-27T20:52:15.079Z,98044.94
2022-08-27T20:57:17.104Z,98050.66
2022-08-27T21:02:28.952Z,98042.91
2022-08-27T21:07:30.881Z,98051.69
2022-08-27T21:12:33.145Z,98048.78
2022-08-27T21:17:35.493Z,98042.38
2022-08-27T21:22:38.479Z,98042.72
2022-08-27T21:27:41.173Z,98046.88
2022-08-27T21:32:43.103Z,98047.53
2022-08-27T21:37:44.946Z,98053.59
2022-08-27T21:42:48.081Z,98051.94
2022-08-27T21:47:51.933Z,98056.88
2022-08-27T21:52:54.174Z,98054.28
2022-08-27T21:57:56.063Z,98059.63
2022-08-27T22:02:58.436Z,98061.84
2022-08-27T22:08:00.483Z,98056.50
2022-08-27T22:13:02.558Z,98061.13
2022-08-27T22:18:05.995Z,98045.47
2022-08-27T22:23:10.150Z,98039.94
2022-08-27T22:28:13.395Z,98047.72
2022-08-27T22:33:16.318Z,98041.50
2022-08-27T22:38:18.251Z,98049.06
2022-08-27T22:43:20.138Z,98046.63
2022-08-27T22:48:22.068Z,98039.34
2022-08-27T22:53:24.093Z,98049.16
2022-08-27T22:58:26.336Z,98044.00
2022-08-27T23:03:28.889Z,98049.16
2022-08-27T23:08:31.985Z,98055.09
2022-08-27T23:13:34.253Z,98053.13
2022-08-27T23:18:36.841Z,98056.53
2022-08-27T23:23:38.923Z,98058.50
2022-08-27T23:28:41.001Z,98064.69
2022-08-27T23:33:43.205Z,98068.59
2022-08-27T23:38:46.080Z,98065.28
2022-08-27T23:43:48.017Z,98076.59
2022-08-27T23:48:49.882Z,98075.59
2022-08-27T23:53:51.749Z,98074.03
2022-08-27T23:58:53.726Z,98069.63
